sensor_id;sensor_type;location;lat;lon;timestamp;P1;durP1;ratioP1;P2;durP2;ratioP2
20857;SDS011;10589;53.636;10.012;2023-02-15T04:45:18;167.20;;;48.60;;
20857;SDS011;10589;53.636;10.012;2023-02-15T04:47:44;161.87;;;47.87;;
20857;SDS011;10589;53.636;10.012;2023-02-15T04:50:09;174.57;;;46.60;;
20857;SDS011;10589;53.636;10.012;2023-02-15T04:52:35;152.33;;;45.50;;
20857;SDS011;10589;53.636;10.012;2023-02-15T04:55:01;171.03;;;48.10;;
20857;SDS011;10589;53.636;10.012;2023-02-15T04:57:26;196.63;;;49.70;;
20857;SDS011;10589;53.636;10.012;2023-02-15T04:59:52;204.47;;;49.77;;
20857;SDS011;10589;53.636;10.012;2023-02-15T05:02:18;170.17;;;48.23;;
20857;SDS011;10589;53.636;10.012;2023-02-15T05:04:44;195.27;;;49.27;;
20857;SDS011;10589;53.636;10.012;2023-02-15T05:07:09;190.17;;;48.90;;
20857;SDS011;10589;53.636;10.012;2023-02-15T05:09:35;185.90;;;48.67;;
20857;SDS011;10589;53.636;10.012;2023-02-15T05:12:00;143.27;;;45.93;;
20857;SDS011;10589;53.636;10.012;2023-02-15T05:14:26;182.23;;;48.97;;
20857;SDS011;10589;53.636;10.012;2023-02-15T05:16:51;174.67;;;48.07;;
20857;SDS011;10589;53.636;10.012;2023-02-15T05:19:18;147.73;;;44.10;;
20857;SDS011;10589;53.636;10.012;2023-02-15T05:21:44;190.20;;;48.60;;
20857;SDS011;10589;53.636;10.012;2023-02-15T05:24:10;288.20;;;50.67;;
20857;SDS011;10589;53.636;10.012;2023-02-15T05:26:54;170.73;;;44.60;;
20857;SDS011;10589;53.636;10.012;2023-02-15T05:29:38;186.33;;;49.13;;
20857;SDS011;10589;53.636;10.012;2023-02-15T05:32:04;178.13;;;47.47;;
20857;SDS011;10589;53.636;10.012;2023-02-15T05:34:30;191.23;;;49.07;;
20857;SDS011;10589;53.636;10.012;2023-02-15T05:36:55;133.73;;;45.30;;
20857;SDS011;10589;53.636;10.012;2023-02-15T05:39:21;182.50;;;50.50;;
20857;SDS011;10589;53.636;10.012;2023-02-15T05:41:47;171.93;;;49.13;;
20857;SDS011;10589;53.636;10.012;2023-02-15T05:44:12;205.30;;;50.90;;
20857;SDS011;10589;53.636;10.012;2023-02-15T05:46:38;133.33;;;43.77;;
20857;SDS011;10589;53.636;10.012;2023-02-15T05:49:03;136.43;;;43.83;;
20857;SDS011;10589;53.636;10.012;2023-02-15T05:51:29;198.17;;;45.83;;
20857;SDS011;10589;53.636;10.012;2023-02-15T05:53:55;239.63;;;48.07;;
20857;SDS011;10589;53.636;10.012;2023-02-15T05:56:21;179.60;;;44.93;;
20857;SDS011;10589;53.636;10.012;2023-02-15T05:58:46;154.47;;;43.93;;
20857;SDS011;10589;53.636;10.012;2023-02-15T06:01:17;214.23;;;48.87;;
20857;SDS011;10589;53.636;10.012;2023-02-15T06:03:44;288.50;;;50.87;;
20857;SDS011;10589;53.636;10.012;2023-02-15T06:06:10;113.93;;;40.87;;
20857;SDS011;10589;53.636;10.012;2023-02-15T06:08:36;294.63;;;48.13;;
20857;SDS011;10589;53.636;10.012;2023-02-15T06:11:03;212.50;;;47.43;;
20857;SDS011;10589;53.636;10.012;2023-02-15T06:13:30;199.43;;;48.57;;
20857;SDS011;10589;53.636;10.012;2023-02-15T06:15:56;121.30;;;42.30;;
20857;SDS011;10589;53.636;10.012;2023-02-15T06:18:21;139.13;;;42.73;;
20857;SDS011;10589;53.636;10.012;2023-02-15T06:20:47;138.60;;;43.00;;
20857;SDS011;10589;53.636;10.012;2023-02-15T06:23:13;113.10;;;40.80;;
20857;SDS011;10589;53.636;10.012;2023-02-15T06:25:40;145.43;;;45.13;;
20857;SDS011;10589;53.636;10.012;2023-02-15T06:28:06;174.40;;;46.03;;
20857;SDS011;10589;53.636;10.012;2023-02-15T06:30:32;133.73;;;43.87;;
20857;SDS011;10589;53.636;10.012;2023-02-15T06:32:57;104.73;;;38.90;;
20857;SDS011;10589;53.636;10.012;2023-02-15T06:35:23;110.73;;;40.50;;
20857;SDS011;10589;53.636;10.012;2023-02-15T06:37:49;148.87;;;44.80;;
20857;SDS011;10589;53.636;10.012;2023-02-15T06:40:15;102.90;;;39.43;;
20857;SDS011;10589;53.636;10.012;2023-02-15T06:42:41;115.73;;;41.70;;
20857;SDS011;10589;53.636;10.012;2023-02-15T06:45:07;211.50;;;47.07;;
20857;SDS011;10589;53.636;10.012;2023-02-15T06:47:34;153.33;;;42.27;;
20857;SDS011;10589;53.636;10.012;2023-02-15T06:49:59;106.37;;;39.33;;
20857;SDS011;10589;53.636;10.012;2023-02-15T06:52:25;106.30;;;39.93;;
20857;SDS011;10589;53.636;10.012;2023-02-15T06:54:51;124.67;;;41.70;;
20857;SDS011;10589;53.636;10.012;2023-02-15T06:57:16;186.47;;;44.93;;
20857;SDS011;10589;53.636;10.012;2023-02-15T06:59:42;218.80;;;44.47;;
20857;SDS011;10589;53.636;10.012;2023-02-15T07:02:08;115.27;;;40.93;;
20857;SDS011;10589;53.636;10.012;2023-02-15T07:04:36;114.97;;;39.23;;
20857;SDS011;10589;53.636;10.012;2023-02-15T07:07:01;105.13;;;38.00;;
20857;SDS011;10589;53.636;10.012;2023-02-15T07:09:27;186.87;;;44.53;;
20857;SDS011;10589;53.636;10.012;2023-02-15T07:11:52;107.47;;;38.60;;
20857;SDS011;10589;53.636;10.012;2023-02-15T07:14:36;139.03;;;41.67;;
20857;SDS011;10589;53.636;10.012;2023-02-15T07:17:02;175.17;;;45.57;;
20857;SDS011;10589;53.636;10.012;2023-02-15T07:19:28;102.10;;;38.83;;
20857;SDS011;10589;53.636;10.012;2023-02-15T07:21:53;100.70;;;39.80;;
20857;SDS011;10589;53.636;10.012;2023-02-15T07:24:19;120.33;;;40.87;;
20857;SDS011;10589;53.636;10.012;2023-02-15T07:26:44;111.43;;;39.80;;
20857;SDS011;10589;53.636;10.012;2023-02-15T07:29:10;146.17;;;42.03;;
20857;SDS011;10589;53.636;10.012;2023-02-15T07:31:35;214.33;;;45.17;;
20857;SDS011;10589;53.636;10.012;2023-02-15T07:34:01;116.17;;;42.17;;
20857;SDS011;10589;53.636;10.012;2023-02-15T07:36:34;104.60;;;41.60;;
20857;SDS011;10589;53.636;10.012;2023-02-15T07:39:09;108.43;;;41.07;;
20857;SDS011;10589;53.636;10.012;2023-02-15T07:41:47;122.03;;;42.90;;
20857;SDS011;10589;53.636;10.012;2023-02-15T07:44:15;108.37;;;39.60;;
20857;SDS011;10589;53.636;10.012;2023-02-15T07:46:41;114.90;;;42.20;;
20857;SDS011;10589;53.636;10.012;2023-02-15T07:49:09;114.93;;;42.63;;
20857;SDS011;10589;53.636;10.012;2023-02-15T07:51:35;124.13;;;41.57;;
20857;SDS011;10589;53.636;10.012;2023-02-15T07:54:00;129.73;;;42.83;;
20857;SDS011;10589;53.636;10.012;2023-02-15T07:56:26;179.47;;;43.80;;
20857;SDS011;10589;53.636;10.012;2023-02-15T07:58:51;103.87;;;39.63;;
20857;SDS011;10589;53.636;10.012;2023-02-15T08:01:27;145.90;;;44.73;;
20857;SDS011;10589;53.636;10.012;2023-02-15T08:03:56;119.17;;;41.50;;
20857;SDS011;10589;53.636;10.012;2023-02-15T08:06:24;216.43;;;43.90;;
20857;SDS011;10589;53.636;10.012;2023-02-15T08:08:51;92.67;;;39.17;;
20857;SDS011;10589;53.636;10.012;2023-02-15T08:11:18;110.90;;;40.67;;
20857;SDS011;10589;53.636;10.012;2023-02-15T08:14:08;106.80;;;39.90;;
20857;SDS011;10589;53.636;10.012;2023-02-15T08:21:58;172.70;;;41.10;;
20857;SDS011;10589;53.636;10.012;2023-02-15T08:24:27;97.33;;;37.47;;
20857;SDS011;10589;53.636;10.012;2023-02-15T08:26:55;96.10;;;38.70;;
20857;SDS011;10589;53.636;10.012;2023-02-15T08:29:22;197.73;;;44.23;;
20857;SDS011;10589;53.636;10.012;2023-02-15T08:31:52;99.87;;;38.73;;
20857;SDS011;10589;53.636;10.012;2023-02-15T08:34:19;100.80;;;39.83;;
20857;SDS011;10589;53.636;10.012;2023-02-15T08:36:46;154.13;;;42.87;;
20857;SDS011;10589;53.636;10.012;2023-02-15T08:39:12;132.27;;;42.33;;
20857;SDS011;10589;53.636;10.012;2023-02-15T08:41:39;117.90;;;41.13;;
20857;SDS011;10589;53.636;10.012;2023-02-15T08:44:07;119.27;;;42.73;;
20857;SDS011;10589;53.636;10.012;2023-02-15T08:46:36;114.57;;;43.10;;
20857;SDS011;10589;53.636;10.012;2023-02-15T08:49:04;93.37;;;40.27;;
20857;SDS011;10589;53.636;10.012;2023-02-15T08:51:32;118.27;;;42.23;;
20857;SDS011;10589;53.636;10.012;2023-02-15T08:54:00;105.40;;;41.90;;
20857;SDS011;10589;53.636;10.012;2023-02-15T08:56:35;172.93;;;42.83;;
20857;SDS011;10589;53.636;10.012;2023-02-15T08:59:02;99.80;;;40.20;;
20857;SDS011;10589;53.636;10.012;2023-02-15T09:01:30;103.70;;;40.97;;
20857;SDS011;10589;53.636;10.012;2023-02-15T09:03:58;127.40;;;42.27;;
20857;SDS011;10589;53.636;10.012;2023-02-15T09:06:26;113.60;;;40.33;;
20857;SDS011;10589;53.636;10.012;2023-02-15T09:08:52;98.10;;;39.80;;
20857;SDS011;10589;53.636;10.012;2023-02-15T09:11:22;105.67;;;41.57;;
20857;SDS011;10589;53.636;10.012;2023-02-15T09:13:52;121.10;;;40.77;;
20857;SDS011;10589;53.636;10.012;2023-02-15T09:16:22;87.70;;;39.63;;
20857;SDS011;10589;53.636;10.012;2023-02-15T09:18:50;97.30;;;39.33;;
20857;SDS011;10589;53.636;10.012;2023-02-15T09:21:18;76.47;;;36.83;;
20857;SDS011;10589;53.636;10.012;2023-02-15T09:23:47;86.50;;;39.47;;
20857;SDS011;10589;53.636;10.012;2023-02-15T09:26:15;87.03;;;39.73;;
20857;SDS011;10589;53.636;10.012;2023-02-15T09:28:45;106.60;;;38.07;;
20857;SDS011;10589;53.636;10.012;2023-02-15T09:31:13;109.77;;;39.93;;
20857;SDS011;10589;53.636;10.012;2023-02-15T09:33:52;82.97;;;38.23;;
20857;SDS011;10589;53.636;10.012;2023-02-15T09:36:22;104.10;;;38.50;;
20857;SDS011;10589;53.636;10.012;2023-02-15T10:04:49;71.13;;;37.03;;
20857;SDS011;10589;53.636;10.012;2023-02-15T10:14:01;78.83;;;35.63;;
20857;SDS011;10589;53.636;10.012;2023-02-15T10:16:48;69.53;;;35.73;;
20857;SDS011;10589;53.636;10.012;2023-02-15T10:19:19;71.10;;;36.53;;
20857;SDS011;10589;53.636;10.012;2023-02-15T10:27:48;65.90;;;35.90;;
20857;SDS011;10589;53.636;10.012;2023-02-15T10:30:21;66.00;;;34.70;;
20857;SDS011;10589;53.636;10.012;2023-02-15T10:33:16;60.87;;;33.87;;
20857;SDS011;10589;53.636;10.012;2023-02-15T10:47:26;63.97;;;34.27;;
20857;SDS011;10589;53.636;10.012;2023-02-15T11:06:58;74.97;;;38.43;;
20857;SDS011;10589;53.636;10.012;2023-02-15T11:09:39;66.97;;;35.83;;
20857;SDS011;10589;53.636;10.012;2023-02-15T11:12:17;64.97;;;37.77;;
20857;SDS011;10589;53.636;10.012;2023-02-15T11:15:11;69.67;;;37.00;;
20857;SDS011;10589;53.636;10.012;2023-02-15T11:23:36;57.20;;;34.50;;
20857;SDS011;10589;53.636;10.012;2023-02-15T11:32:23;54.50;;;32.30;;
20857;SDS011;10589;53.636;10.012;2023-02-15T11:43:21;61.17;;;36.17;;
20857;SDS011;10589;53.636;10.012;2023-02-15T11:46:01;60.17;;;35.00;;
20857;SDS011;10589;53.636;10.012;2023-02-15T11:48:27;63.17;;;36.30;;
20857;SDS011;10589;53.636;10.012;2023-02-15T11:50:56;59.63;;;36.57;;
20857;SDS011;10589;53.636;10.012;2023-02-15T11:53:22;64.47;;;36.70;;
20857;SDS011;10589;53.636;10.012;2023-02-15T11:55:52;65.13;;;37.10;;
20857;SDS011;10589;53.636;10.012;2023-02-15T12:00:50;54.60;;;33.43;;
20857;SDS011;10589;53.636;10.012;2023-02-15T12:03:22;59.70;;;34.60;;
20857;SDS011;10589;53.636;10.012;2023-02-15T12:05:58;54.00;;;33.70;;
20857;SDS011;10589;53.636;10.012;2023-02-15T12:08:30;57.93;;;34.00;;
20857;SDS011;10589;53.636;10.012;2023-02-15T12:14:05;53.50;;;34.07;;
20857;SDS011;10589;53.636;10.012;2023-02-15T12:17:11;53.10;;;32.83;;
20857;SDS011;10589;53.636;10.012;2023-02-15T12:19:29;50.33;;;33.33;;
20857;SDS011;10589;53.636;10.012;2023-02-15T12:21:58;51.70;;;32.67;;
20857;SDS011;10589;53.636;10.012;2023-02-15T12:24:28;50.80;;;33.23;;
20857;SDS011;10589;53.636;10.012;2023-02-15T12:26:57;52.23;;;33.30;;
20857;SDS011;10589;53.636;10.012;2023-02-15T12:29:25;54.57;;;33.80;;
20857;SDS011;10589;53.636;10.012;2023-02-15T12:31:55;58.90;;;33.10;;
20857;SDS011;10589;53.636;10.012;2023-02-15T12:34:22;52.30;;;31.87;;
20857;SDS011;10589;53.636;10.012;2023-02-15T12:37:01;47.33;;;32.13;;
20857;SDS011;10589;53.636;10.012;2023-02-15T12:39:35;50.20;;;31.10;;
20857;SDS011;10589;53.636;10.012;2023-02-15T12:42:05;50.03;;;32.90;;
20857;SDS011;10589;53.636;10.012;2023-02-15T12:45:03;49.73;;;31.53;;
20857;SDS011;10589;53.636;10.012;2023-02-15T12:47:44;50.63;;;31.87;;
20857;SDS011;10589;53.636;10.012;2023-02-15T12:50:22;49.60;;;31.43;;
20857;SDS011;10589;53.636;10.012;2023-02-15T12:52:51;45.57;;;28.67;;
20857;SDS011;10589;53.636;10.012;2023-02-15T12:55:32;48.73;;;32.33;;
20857;SDS011;10589;53.636;10.012;2023-02-15T12:58:08;45.23;;;30.33;;
20857;SDS011;10589;53.636;10.012;2023-02-15T13:00:42;46.07;;;31.17;;
20857;SDS011;10589;53.636;10.012;2023-02-15T13:03:15;48.23;;;30.00;;
20857;SDS011;10589;53.636;10.012;2023-02-15T13:05:50;46.37;;;31.20;;
20857;SDS011;10589;53.636;10.012;2023-02-15T13:08:22;44.47;;;29.63;;
20857;SDS011;10589;53.636;10.012;2023-02-15T13:11:04;49.73;;;32.27;;
20857;SDS011;10589;53.636;10.012;2023-02-15T13:13:54;44.00;;;29.03;;
20857;SDS011;10589;53.636;10.012;2023-02-15T13:16:27;47.67;;;31.17;;
20857;SDS011;10589;53.636;10.012;2023-02-15T13:18:54;51.87;;;30.97;;
20857;SDS011;10589;53.636;10.012;2023-02-15T13:21:29;45.47;;;30.80;;
20857;SDS011;10589;53.636;10.012;2023-02-15T13:24:00;48.40;;;30.33;;
20857;SDS011;10589;53.636;10.012;2023-02-15T13:26:31;47.07;;;32.17;;
20857;SDS011;10589;53.636;10.012;2023-02-15T13:29:00;47.17;;;30.57;;
20857;SDS011;10589;53.636;10.012;2023-02-15T13:31:37;47.60;;;32.03;;
20857;SDS011;10589;53.636;10.012;2023-02-15T13:34:09;44.27;;;28.57;;
20857;SDS011;10589;53.636;10.012;2023-02-15T13:39:59;40.07;;;28.53;;
20857;SDS011;10589;53.636;10.012;2023-02-15T13:43:01;39.50;;;27.03;;
20857;SDS011;10589;53.636;10.012;2023-02-15T13:51:13;38.53;;;27.57;;
20857;SDS011;10589;53.636;10.012;2023-02-15T14:03:39;39.73;;;29.10;;
20857;SDS011;10589;53.636;10.012;2023-02-15T14:08:21;37.27;;;28.30;;
20857;SDS011;10589;53.636;10.012;2023-02-15T14:11:12;41.00;;;28.20;;
20857;SDS011;10589;53.636;10.012;2023-02-15T14:13:44;37.77;;;26.93;;
20857;SDS011;10589;53.636;10.012;2023-02-15T14:16:24;35.43;;;28.40;;
20857;SDS011;10589;53.636;10.012;2023-02-15T14:19:20;36.63;;;27.07;;
20857;SDS011;10589;53.636;10.012;2023-02-15T14:27:26;32.60;;;26.90;;
20857;SDS011;10589;53.636;10.012;2023-02-15T14:30:09;33.23;;;26.00;;
20857;SDS011;10589;53.636;10.012;2023-02-15T14:32:46;33.10;;;25.60;;
20857;SDS011;10589;53.636;10.012;2023-02-15T14:35:19;38.77;;;27.53;;
20857;SDS011;10589;53.636;10.012;2023-02-15T14:37:50;36.40;;;28.10;;
20857;SDS011;10589;53.636;10.012;2023-02-15T14:46:31;40.90;;;28.70;;
20857;SDS011;10589;53.636;10.012;2023-02-15T14:56:45;41.43;;;28.10;;
20857;SDS011;10589;53.636;10.012;2023-02-15T15:07:19;43.10;;;29.30;;
20857;SDS011;10589;53.636;10.012;2023-02-15T15:12:55;41.73;;;29.33;;
20857;SDS011;10589;53.636;10.012;2023-02-15T15:18:06;40.40;;;29.77;;
20857;SDS011;10589;53.636;10.012;2023-02-15T15:20:46;36.20;;;26.47;;
20857;SDS011;10589;53.636;10.012;2023-02-15T15:28:06;39.57;;;27.17;;
20857;SDS011;10589;53.636;10.012;2023-02-15T15:32:59;36.57;;;25.60;;
20857;SDS011;10589;53.636;10.012;2023-02-15T15:39:12;37.30;;;25.53;;
20857;SDS011;10589;53.636;10.012;2023-02-15T15:42:04;37.20;;;26.13;;
20857;SDS011;10589;53.636;10.012;2023-02-15T15:47:53;36.07;;;26.43;;
20857;SDS011;10589;53.636;10.012;2023-02-15T15:50:31;32.00;;;23.90;;
20857;SDS011;10589;53.636;10.012;2023-02-15T15:52:58;30.40;;;23.07;;
20857;SDS011;10589;53.636;10.012;2023-02-15T15:55:25;37.60;;;26.70;;
20857;SDS011;10589;53.636;10.012;2023-02-15T15:57:56;33.70;;;24.73;;
20857;SDS011;10589;53.636;10.012;2023-02-15T16:02:57;37.33;;;26.27;;
20857;SDS011;10589;53.636;10.012;2023-02-15T16:05:23;30.93;;;24.07;;
20857;SDS011;10589;53.636;10.012;2023-02-15T16:07:48;36.03;;;25.07;;
20857;SDS011;10589;53.636;10.012;2023-02-15T16:12:51;35.87;;;25.63;;
20857;SDS011;10589;53.636;10.012;2023-02-15T16:15:22;34.67;;;24.23;;
20857;SDS011;10589;53.636;10.012;2023-02-15T16:17:54;33.73;;;25.03;;
20857;SDS011;10589;53.636;10.012;2023-02-15T16:20:31;38.07;;;26.53;;
20857;SDS011;10589;53.636;10.012;2023-02-15T16:26:01;39.50;;;27.37;;
20857;SDS011;10589;53.636;10.012;2023-02-15T16:28:52;37.10;;;26.77;;
20857;SDS011;10589;53.636;10.012;2023-02-15T16:31:19;41.93;;;27.87;;
20857;SDS011;10589;53.636;10.012;2023-02-15T16:33:51;43.53;;;28.33;;
20857;SDS011;10589;53.636;10.012;2023-02-15T16:36:25;41.90;;;28.10;;
20857;SDS011;10589;53.636;10.012;2023-02-15T16:41:25;38.10;;;27.17;;
20857;SDS011;10589;53.636;10.012;2023-02-15T16:43:55;38.50;;;27.30;;
20857;SDS011;10589;53.636;10.012;2023-02-15T16:48:49;38.30;;;27.27;;
20857;SDS011;10589;53.636;10.012;2023-02-15T16:51:21;43.87;;;29.80;;
20857;SDS011;10589;53.636;10.012;2023-02-15T16:53:49;38.93;;;27.23;;
20857;SDS011;10589;53.636;10.012;2023-02-15T16:56:16;39.33;;;27.87;;
20857;SDS011;10589;53.636;10.012;2023-02-15T16:58:52;38.17;;;27.13;;
20857;SDS011;10589;53.636;10.012;2023-02-15T17:01:19;40.00;;;28.03;;
20857;SDS011;10589;53.636;10.012;2023-02-15T17:04:38;40.07;;;27.87;;
20857;SDS011;10589;53.636;10.012;2023-02-15T17:09:32;39.97;;;26.17;;
20857;SDS011;10589;53.636;10.012;2023-02-15T17:11:59;39.67;;;26.07;;
20857;SDS011;10589;53.636;10.012;2023-02-15T17:14:27;37.63;;;26.80;;
20857;SDS011;10589;53.636;10.012;2023-02-15T17:17:16;44.53;;;28.00;;
20857;SDS011;10589;53.636;10.012;2023-02-15T17:19:44;41.67;;;28.93;;
20857;SDS011;10589;53.636;10.012;2023-02-15T17:22:24;44.47;;;28.30;;
20857;SDS011;10589;53.636;10.012;2023-02-15T17:24:59;40.57;;;26.97;;
20857;SDS011;10589;53.636;10.012;2023-02-15T17:27:27;40.47;;;27.30;;
20857;SDS011;10589;53.636;10.012;2023-02-15T17:30:00;41.67;;;28.17;;
20857;SDS011;10589;53.636;10.012;2023-02-15T17:32:28;46.63;;;30.93;;
20857;SDS011;10589;53.636;10.012;2023-02-15T17:37:50;45.33;;;29.30;;
20857;SDS011;10589;53.636;10.012;2023-02-15T17:40:30;41.53;;;27.77;;
20857;SDS011;10589;53.636;10.012;2023-02-15T17:42:57;42.90;;;28.30;;
20857;SDS011;10589;53.636;10.012;2023-02-15T17:45:24;40.93;;;28.63;;
20857;SDS011;10589;53.636;10.012;2023-02-15T17:47:55;39.50;;;26.73;;
20857;SDS011;10589;53.636;10.012;2023-02-15T17:50:24;42.40;;;28.90;;
20857;SDS011;10589;53.636;10.012;2023-02-15T17:52:52;39.97;;;27.23;;
20857;SDS011;10589;53.636;10.012;2023-02-15T17:55:21;38.23;;;25.80;;
20857;SDS011;10589;53.636;10.012;2023-02-15T17:57:59;39.80;;;26.17;;
20857;SDS011;10589;53.636;10.012;2023-02-15T18:00:26;38.30;;;25.97;;
20857;SDS011;10589;53.636;10.012;2023-02-15T18:03:10;39.87;;;27.00;;
20857;SDS011;10589;53.636;10.012;2023-02-15T18:05:55;43.47;;;29.03;;
20857;SDS011;10589;53.636;10.012;2023-02-15T18:08:40;43.73;;;29.50;;
20857;SDS011;10589;53.636;10.012;2023-02-15T18:11:24;41.60;;;27.90;;
20857;SDS011;10589;53.636;10.012;2023-02-15T18:14:08;41.73;;;28.30;;
20857;SDS011;10589;53.636;10.012;2023-02-15T18:16:38;42.83;;;28.40;;
20857;SDS011;10589;53.636;10.012;2023-02-15T18:19:25;42.33;;;28.63;;
20857;SDS011;10589;53.636;10.012;2023-02-15T18:21:51;42.47;;;28.07;;
20857;SDS011;10589;53.636;10.012;2023-02-15T18:24:20;45.03;;;28.37;;
20857;SDS011;10589;53.636;10.012;2023-02-15T18:26:51;45.60;;;28.83;;
20857;SDS011;10589;53.636;10.012;2023-02-15T18:29:17;44.00;;;28.83;;
20857;SDS011;10589;53.636;10.012;2023-02-15T18:31:43;47.43;;;30.03;;
20857;SDS011;10589;53.636;10.012;2023-02-15T18:34:20;44.10;;;29.23;;
20857;SDS011;10589;53.636;10.012;2023-02-15T18:36:48;47.97;;;30.97;;
20857;SDS011;10589;53.636;10.012;2023-02-15T18:41:51;43.90;;;29.37;;
20857;SDS011;10589;53.636;10.012;2023-02-15T18:44:17;47.90;;;31.77;;
20857;SDS011;10589;53.636;10.012;2023-02-15T18:46:43;49.70;;;31.23;;
20857;SDS011;10589;53.636;10.012;2023-02-15T18:49:09;47.53;;;29.70;;
20857;SDS011;10589;53.636;10.012;2023-02-15T18:51:34;50.37;;;31.47;;
20857;SDS011;10589;53.636;10.012;2023-02-15T18:54:04;46.67;;;30.40;;
20857;SDS011;10589;53.636;10.012;2023-02-15T18:56:31;45.43;;;30.40;;
20857;SDS011;10589;53.636;10.012;2023-02-15T18:58:57;48.57;;;31.10;;
20857;SDS011;10589;53.636;10.012;2023-02-15T19:01:22;52.63;;;33.83;;
20857;SDS011;10589;53.636;10.012;2023-02-15T19:03:49;52.73;;;33.77;;
20857;SDS011;10589;53.636;10.012;2023-02-15T19:06:19;53.80;;;32.90;;
20857;SDS011;10589;53.636;10.012;2023-02-15T19:08:47;59.07;;;34.23;;
20857;SDS011;10589;53.636;10.012;2023-02-15T19:11:16;47.87;;;31.00;;
20857;SDS011;10589;53.636;10.012;2023-02-15T19:13:43;48.87;;;31.50;;
20857;SDS011;10589;53.636;10.012;2023-02-15T19:16:14;50.17;;;30.80;;
20857;SDS011;10589;53.636;10.012;2023-02-15T19:18:51;49.93;;;30.33;;
20857;SDS011;10589;53.636;10.012;2023-02-15T19:21:17;50.53;;;32.90;;
20857;SDS011;10589;53.636;10.012;2023-02-15T19:23:52;50.83;;;30.57;;
20857;SDS011;10589;53.636;10.012;2023-02-15T19:26:20;51.87;;;32.30;;
20857;SDS011;10589;53.636;10.012;2023-02-15T19:28:46;49.40;;;31.40;;
20857;SDS011;10589;53.636;10.012;2023-02-15T19:31:12;53.40;;;32.30;;
20857;SDS011;10589;53.636;10.012;2023-02-15T19:33:38;60.23;;;33.67;;
20857;SDS011;10589;53.636;10.012;2023-02-15T19:36:04;57.17;;;33.60;;
20857;SDS011;10589;53.636;10.012;2023-02-15T19:38:36;48.63;;;30.97;;
20857;SDS011;10589;53.636;10.012;2023-02-15T19:41:03;49.63;;;31.43;;
20857;SDS011;10589;53.636;10.012;2023-02-15T19:43:31;55.23;;;33.93;;
20857;SDS011;10589;53.636;10.012;2023-02-15T19:45:58;54.03;;;32.67;;
20857;SDS011;10589;53.636;10.012;2023-02-15T19:48:24;54.67;;;32.90;;
20857;SDS011;10589;53.636;10.012;2023-02-15T19:50:49;56.83;;;34.53;;
20857;SDS011;10589;53.636;10.012;2023-02-15T19:53:18;53.93;;;32.40;;
20857;SDS011;10589;53.636;10.012;2023-02-15T19:55:46;57.00;;;32.93;;
20857;SDS011;10589;53.636;10.012;2023-02-15T19:58:12;58.70;;;33.27;;
20857;SDS011;10589;53.636;10.012;2023-02-15T20:00:38;52.43;;;31.63;;
20857;SDS011;10589;53.636;10.012;2023-02-15T20:03:04;49.07;;;30.53;;
20857;SDS011;10589;53.636;10.012;2023-02-15T20:05:31;50.80;;;32.97;;
20857;SDS011;10589;53.636;10.012;2023-02-15T20:08:02;51.93;;;31.67;;
20857;SDS011;10589;53.636;10.012;2023-02-15T20:10:32;51.10;;;31.57;;
20857;SDS011;10589;53.636;10.012;2023-02-15T20:12:59;53.87;;;31.43;;
20857;SDS011;10589;53.636;10.012;2023-02-15T20:17:51;52.03;;;31.03;;
20857;SDS011;10589;53.636;10.012;2023-02-15T20:20:17;48.10;;;29.77;;
20857;SDS011;10589;53.636;10.012;2023-02-15T20:22:44;50.73;;;31.63;;
20857;SDS011;10589;53.636;10.012;2023-02-15T20:25:14;48.17;;;30.13;;
20857;SDS011;10589;53.636;10.012;2023-02-15T20:27:45;46.73;;;29.37;;
20857;SDS011;10589;53.636;10.012;2023-02-15T20:30:29;48.73;;;29.80;;
20857;SDS011;10589;53.636;10.012;2023-02-15T20:32:56;48.70;;;28.83;;
20857;SDS011;10589;53.636;10.012;2023-02-15T20:35:23;53.43;;;31.50;;
20857;SDS011;10589;53.636;10.012;2023-02-15T20:37:53;51.13;;;30.53;;
20857;SDS011;10589;53.636;10.012;2023-02-15T20:40:22;54.37;;;31.80;;
20857;SDS011;10589;53.636;10.012;2023-02-15T20:42:50;48.33;;;30.73;;
20857;SDS011;10589;53.636;10.012;2023-02-15T20:45:17;54.07;;;32.47;;
20857;SDS011;10589;53.636;10.012;2023-02-15T20:47:56;56.87;;;32.33;;
20857;SDS011;10589;53.636;10.012;2023-02-15T20:50:23;55.47;;;32.70;;
20857;SDS011;10589;53.636;10.012;2023-02-15T20:52:51;64.10;;;35.57;;
20857;SDS011;10589;53.636;10.012;2023-02-15T20:55:20;61.30;;;34.43;;
20857;SDS011;10589;53.636;10.012;2023-02-15T20:58:04;61.17;;;33.83;;
20857;SDS011;10589;53.636;10.012;2023-02-15T21:00:43;53.73;;;31.83;;
20857;SDS011;10589;53.636;10.012;2023-02-15T21:03:09;58.40;;;35.03;;
20857;SDS011;10589;53.636;10.012;2023-02-15T21:05:37;62.97;;;36.07;;
20857;SDS011;10589;53.636;10.012;2023-02-15T21:08:14;57.83;;;33.60;;
20857;SDS011;10589;53.636;10.012;2023-02-15T21:10:42;53.33;;;32.47;;
20857;SDS011;10589;53.636;10.012;2023-02-15T21:15:46;55.07;;;31.67;;
20857;SDS011;10589;53.636;10.012;2023-02-15T21:18:18;57.27;;;31.27;;
20857;SDS011;10589;53.636;10.012;2023-02-15T21:20:46;53.40;;;30.93;;
20857;SDS011;10589;53.636;10.012;2023-02-15T21:23:14;48.43;;;29.93;;
20857;SDS011;10589;53.636;10.012;2023-02-15T21:25:41;51.87;;;29.73;;
20857;SDS011;10589;53.636;10.012;2023-02-15T21:28:14;51.13;;;30.43;;
20857;SDS011;10589;53.636;10.012;2023-02-15T21:30:43;55.20;;;31.27;;
20857;SDS011;10589;53.636;10.012;2023-02-15T21:33:09;55.47;;;30.90;;
20857;SDS011;10589;53.636;10.012;2023-02-15T21:35:34;53.13;;;31.33;;
20857;SDS011;10589;53.636;10.012;2023-02-15T21:38:01;49.67;;;30.07;;
20857;SDS011;10589;53.636;10.012;2023-02-15T21:40:29;52.23;;;29.57;;
20857;SDS011;10589;53.636;10.012;2023-02-15T21:42:56;49.67;;;29.17;;
20857;SDS011;10589;53.636;10.012;2023-02-15T21:45:41;47.67;;;28.47;;
20857;SDS011;10589;53.636;10.012;2023-02-15T21:48:25;50.53;;;29.80;;
20857;SDS011;10589;53.636;10.012;2023-02-15T21:50:51;49.70;;;28.83;;
20857;SDS011;10589;53.636;10.012;2023-02-15T21:53:38;49.13;;;29.27;;
20857;SDS011;10589;53.636;10.012;2023-02-15T21:56:12;48.47;;;28.50;;
20857;SDS011;10589;53.636;10.012;2023-02-15T21:58:48;47.77;;;29.50;;
20857;SDS011;10589;53.636;10.012;2023-02-15T22:03:50;50.00;;;29.00;;
20857;SDS011;10589;53.636;10.012;2023-02-15T22:06:17;44.33;;;28.10;;
20857;SDS011;10589;53.636;10.012;2023-02-15T22:08:43;52.73;;;29.13;;
20857;SDS011;10589;53.636;10.012;2023-02-15T22:11:13;41.17;;;26.63;;
20857;SDS011;10589;53.636;10.012;2023-02-15T22:13:41;44.93;;;27.33;;
20857;SDS011;10589;53.636;10.012;2023-02-15T22:16:15;42.23;;;27.27;;
20857;SDS011;10589;53.636;10.012;2023-02-15T22:18:42;42.23;;;26.47;;
20857;SDS011;10589;53.636;10.012;2023-02-15T22:21:09;46.53;;;27.83;;
20857;SDS011;10589;53.636;10.012;2023-02-15T22:23:35;49.33;;;26.63;;
20857;SDS011;10589;53.636;10.012;2023-02-15T22:26:02;42.03;;;25.90;;